Time;durP1;ratioP1;P1;durP2;ratioP2;P2;SDS_P1;SDS_P2;PMS_P1;PMS_P2;Temp;Humidity;BMP_temperature;BMP_pressure;BME280_temperature;BME280_humidity;BME280_pressure;Samples;Min_cycle;Max_cycle;Signal;HPM_P1;HPM_P2
2022/01/25 00:31:09;;;;;;;12.70;6.50;;;4.60;99.90;;;;;;5012918;28;20549;-70
2022/01/25 00:33:36;;;;;;;7.80;5.17;;;4.50;99.90;;;;;;5012944;28;20395;-70
2022/01/25 00:36:04;;;;;;;12.27;5.70;;;4.50;99.90;;;;;;5012793;28;20462;-70
2022/01/25 00:38:30;;;;;;;6.80;4.37;;;4.60;99.90;;;;;;5010513;28;20763;-70
2022/01/25 00:40:56;;;;;;;8.33;4.50;;;4.60;99.90;;;;;;5012767;28;20407;-70
2022/01/25 00:43:23;;;;;;;6.93;6.07;;;4.60;99.90;;;;;;5012344;28;20176;-70
2022/01/25 00:45:50;;;;;;;10.83;4.00;;;4.60;99.90;;;;;;5012400;28;20204;-70
2022/01/25 00:48:19;;;;;;;7.67;5.37;;;4.60;99.90;;;;;;5012508;28;20403;-70
2022/01/25 00:50:45;;;;;;;9.80;4.90;;;4.50;99.90;;;;;;5012480;28;20450;-71
2022/01/25 00:53:55;;;;;;;10.53;5.10;;;4.50;99.90;;;;;;5012294;28;20406;-71
2022/01/25 00:56:12;;;;;;;7.43;6.07;;;4.50;99.90;;;;;;4999919;28;20439;-70
2022/01/25 00:58:37;;;;;;;7.40;5.47;;;4.50;99.90;;;;;;5012253;28;20403;-71
2022/01/25 01:01:03;;;;;;;14.87;6.13;;;4.50;99.90;;;;;;5012203;28;20172;-71
2022/01/25 01:03:28;;;;;;;9.20;7.00;;;4.50;99.90;;;;;;5012011;28;20325;-71
2022/01/25 01:05:53;;;;;;;16.47;5.83;;;4.50;99.90;;;;;;5011879;28;20666;-70
2022/01/25 01:08:19;;;;;;;9.77;7.17;;;4.40;99.90;;;;;;5012452;28;20177;-70
2022/01/25 01:10:45;;;;;;;7.90;5.13;;;4.40;99.90;;;;;;5011902;28;20199;-70
2022/01/25 01:13:40;;;;;;;10.00;6.43;;;4.40;99.90;;;;;;5012041;28;20588;-70
2022/01/25 01:16:27;;;;;;;5.80;5.23;;;4.40;99.90;;;;;;5011561;28;20202;-70
2022/01/25 01:29:03;;;;;;;11.47;5.30;;;4.40;99.90;;;;;;5011887;28;20791;-70
2022/01/25 01:30:07;;;;;;;4.57;3.87;;;4.40;99.90;;;;;;5011660;28;20497;-71
2022/01/25 01:33:40;;;;;;;8.20;5.80;;;4.40;99.90;;;;;;5003969;28;20422;-71
2022/01/25 01:35:46;;;;;;;11.37;3.67;;;4.40;99.90;;;;;;5000538;28;20463;-71
2022/01/25 01:39:04;;;;;;;5.80;4.37;;;4.50;99.90;;;;;;5011725;28;20466;-71
2022/01/25 01:41:50;;;;;;;7.33;5.30;;;4.40;99.90;;;;;;5011285;28;20435;-70
2022/01/25 01:44:25;;;;;;;10.13;4.50;;;4.50;99.90;;;;;;5011570;28;20490;-71
2022/01/25 01:49:39;;;;;;;6.17;4.57;;;4.40;99.90;;;;;;5011518;28;20952;-71
2022/01/25 01:52:05;;;;;;;10.30;5.40;;;4.40;99.90;;;;;;5011625;28;20391;-70
2022/01/25 01:54:31;;;;;;;9.87;5.37;;;4.30;99.90;;;;;;5011401;28;20407;-70
2022/01/25 01:56:57;;;;;;;7.27;5.67;;;4.30;99.90;;;;;;5003334;28;20458;-71
2022/01/25 01:59:22;;;;;;;11.37;5.83;;;4.30;99.90;;;;;;4992000;28;20207;-71
2022/01/25 02:01:48;;;;;;;6.87;5.93;;;4.30;99.90;;;;;;4992015;28;20212;-70
2022/01/25 02:04:16;;;;;;;6.93;4.20;;;4.30;99.90;;;;;;4991649;28;20208;-70
2022/01/25 02:06:42;;;;;;;11.47;6.00;;;4.30;99.90;;;;;;4991766;28;20425;-71
2022/01/25 02:09:09;;;;;;;8.40;4.50;;;4.30;99.90;;;;;;4991735;28;20451;-70
2022/01/25 02:11:35;;;;;;;9.57;4.50;;;4.30;99.90;;;;;;4991682;28;20166;-71
2022/01/25 02:14:05;;;;;;;11.63;5.97;;;4.30;99.90;;;;;;4991698;28;20412;-70
2022/01/25 02:24:44;;;;;;;8.50;6.83;;;4.20;99.90;;;;;;5011145;28;20426;-71
2022/01/25 02:27:11;;;;;;;11.23;6.60;;;4.20;99.90;;;;;;5011024;28;20437;-71
2022/01/25 02:29:38;;;;;;;10.23;6.20;;;4.20;99.90;;;;;;5010999;28;20455;-70
2022/01/25 02:32:05;;;;;;;13.80;6.60;;;4.10;99.90;;;;;;5011064;28;20490;-70
2022/01/25 02:34:31;;;;;;;13.93;7.03;;;4.20;99.90;;;;;;5013073;28;20411;-70
2022/01/25 02:37:03;;;;;;;18.23;6.17;;;4.10;99.90;;;;;;5014808;28;20443;-70
2022/01/25 02:39:30;;;;;;;6.40;4.40;;;4.20;99.90;;;;;;5014580;28;20176;-70
2022/01/25 02:41:56;;;;;;;12.13;5.93;;;4.20;99.90;;;;;;5014649;28;20422;-69
2022/01/25 02:44:27;;;;;;;11.10;7.40;;;4.10;99.90;;;;;;5014651;28;20491;-71
2022/01/25 02:49:22;;;;;;;13.47;7.60;;;4.20;99.90;;;;;;5014552;28;20450;-69
2022/01/25 02:51:48;;;;;;;13.97;7.53;;;4.00;99.90;;;;;;5014351;28;20410;-71
2022/01/25 02:54:16;;;;;;;12.27;5.33;;;4.10;99.90;;;;;;5014009;28;20279;-70
2022/01/25 02:56:43;;;;;;;14.27;6.67;;;4.00;99.90;;;;;;5013803;28;20458;-71
2022/01/25 02:59:09;;;;;;;13.23;7.13;;;4.00;99.90;;;;;;5012385;28;20922;-71
2022/01/25 03:01:36;;;;;;;10.07;5.47;;;4.00;99.90;;;;;;5014605;28;20412;-74
2022/01/25 03:04:02;;;;;;;15.67;7.13;;;4.00;99.90;;;;;;5014226;28;20429;-70
2022/01/25 03:06:28;;;;;;;14.37;6.20;;;4.00;99.90;;;;;;5016825;28;20443;-71
2022/01/25 03:08:54;;;;;;;12.90;6.43;;;3.90;99.90;;;;;;5017652;28;20489;-71
2022/01/25 03:11:22;;;;;;;20.10;10.20;;;3.90;99.90;;;;;;5017745;28;20156;-71
2022/01/25 03:13:53;;;;;;;12.60;6.33;;;3.90;99.90;;;;;;5014453;28;20466;-71
2022/01/25 03:16:36;;;;;;;14.00;6.17;;;3.90;99.90;;;;;;5013843;28;20434;-71
2022/01/25 03:19:27;;;;;;;11.47;6.70;;;3.90;99.90;;;;;;5014112;28;20407;-70
2022/01/25 03:21:49;;;;;;;16.17;7.87;;;4.00;99.90;;;;;;5013546;28;20419;-70
2022/01/25 03:24:15;;;;;;;16.60;7.00;;;3.90;99.90;;;;;;5013593;28;20737;-70
2022/01/25 03:26:40;;;;;;;10.07;6.67;;;3.90;99.90;;;;;;5013673;28;20265;-70
2022/01/25 03:29:06;;;;;;;13.57;7.00;;;3.90;99.90;;;;;;5013511;28;20200;-75
2022/01/25 03:31:31;;;;;;;9.67;6.43;;;3.80;99.90;;;;;;5013651;28;20173;-69
2022/01/25 03:33:57;;;;;;;14.47;8.90;;;3.80;99.90;;;;;;5013667;28;20251;-70
2022/01/25 03:36:23;;;;;;;13.47;6.10;;;3.80;99.90;;;;;;4996126;28;20586;-70
2022/01/25 03:38:48;;;;;;;12.93;5.37;;;3.80;99.90;;;;;;5013552;28;20223;-70
2022/01/25 03:41:15;;;;;;;12.43;5.67;;;3.80;99.90;;;;;;5014020;28;20168;-71
2022/01/25 03:43:43;;;;;;;15.80;6.80;;;3.80;99.90;;;;;;5013232;28;20181;-71
2022/01/25 03:46:18;;;;;;;6.73;5.07;;;3.80;99.90;;;;;;5012353;28;20435;-71
2022/01/25 03:51:28;;;;;;;12.07;6.30;;;3.80;99.90;;;;;;5013515;28;20441;-70
2022/01/25 03:53:53;;;;;;;11.67;5.57;;;3.70;99.90;;;;;;5012636;28;20395;-70
2022/01/25 03:56:20;;;;;;;12.50;6.80;;;3.70;99.90;;;;;;5013235;28;20216;-71
2022/01/25 03:58:46;;;;;;;12.03;8.80;;;3.70;99.90;;;;;;5013380;28;20164;-71
2022/01/25 04:01:11;;;;;;;12.87;6.50;;;3.70;99.90;;;;;;5013565;28;20425;-70
2022/01/25 04:03:43;;;;;;;14.33;6.67;;;3.70;99.90;;;;;;5013430;28;20631;-71
2022/01/25 04:06:10;;;;;;;17.00;7.63;;;3.70;99.90;;;;;;5013119;28;20197;-70
2022/01/25 04:08:36;;;;;;;12.60;4.30;;;3.70;99.90;;;;;;5013075;28;20411;-70
2022/01/25 04:11:02;;;;;;;12.90;6.80;;;3.70;99.90;;;;;;5013412;28;20459;-71
2022/01/25 04:13:27;;;;;;;8.57;5.83;;;3.80;99.90;;;;;;5012785;28;20483;-70
2022/01/25 04:15:56;;;;;;;13.07;6.90;;;3.70;99.90;;;;;;5012671;28;20192;-70
2022/01/25 04:26:24;;;;;;;19.47;8.13;;;3.80;99.90;;;;;;5012715;28;20461;-70
2022/01/25 04:28:49;;;;;;;13.63;5.23;;;3.80;99.90;;;;;;5012646;28;20407;-70
2022/01/25 04:31:18;;;;;;;15.47;6.13;;;3.70;99.90;;;;;;5012657;28;20573;-70
2022/01/25 04:33:56;;;;;;;15.03;5.80;;;3.70;99.90;;;;;;5012256;28;20238;-70
2022/01/25 04:48:51;;;;;;;11.47;8.83;;;3.70;99.90;;;;;;5012508;28;20826;-70
2022/01/25 04:50:31;;;;;;;11.17;5.80;;;3.80;99.90;;;;;;5012535;28;20524;-71
2022/01/25 04:53:17;;;;;;;12.20;5.50;;;3.80;99.90;;;;;;5012609;28;20407;-71
2022/01/25 04:55:54;;;;;;;11.60;6.07;;;3.70;99.90;;;;;;5012169;28;20509;-71
2022/01/25 04:58:31;;;;;;;10.87;6.37;;;3.80;99.90;;;;;;5012179;28;20414;-71
2022/01/25 05:00:57;;;;;;;10.53;5.93;;;3.80;99.90;;;;;;5012640;28;20765;-70
2022/01/25 05:03:27;;;;;;;7.23;4.90;;;3.80;99.90;;;;;;5012148;28;20408;-70
2022/01/25 05:06:03;;;;;;;10.93;6.00;;;3.80;99.90;;;;;;5011998;28;20757;-70
2022/01/25 05:08:37;;;;;;;13.17;6.77;;;3.80;99.90;;;;;;5012192;28;20414;-72
2022/01/25 05:11:09;;;;;;;8.60;5.63;;;3.80;99.90;;;;;;5011964;28;20899;-71
2022/01/25 05:13:50;;;;;;;8.53;4.80;;;3.80;99.90;;;;;;5012171;28;20997;-70
2022/01/25 05:16:28;;;;;;;13.33;6.37;;;3.70;99.90;;;;;;5011937;28;20430;-70
2022/01/25 05:22:04;;;;;;;10.57;6.43;;;3.80;99.90;;;;;;5012119;28;20879;-71
2022/01/25 05:22:06;;;;;;;19.77;6.17;;;3.80;99.90;;;;;;4981187;28;20411;-71
2022/01/25 05:24:37;;;;;;;11.47;5.97;;;3.80;99.90;;;;;;5012130;28;20395;-71
2022/01/25 05:27:05;;;;;;;7.47;4.17;;;3.80;99.90;;;;;;5011896;28;20506;-71
2022/01/25 05:29:30;;;;;;;11.13;7.60;;;3.80;99.90;;;;;;5011720;28;20439;-70
2022/01/25 05:31:56;;;;;;;11.40;6.83;;;3.90;99.90;;;;;;5011536;28;20415;-70
2022/01/25 05:34:22;;;;;;;14.40;6.13;;;3.80;99.90;;;;;;5011924;28;20188;-70
2022/01/25 05:36:47;;;;;;;12.27;6.03;;;3.80;99.90;;;;;;5011490;28;20529;-70
2022/01/25 05:39:15;;;;;;;9.30;5.90;;;3.90;99.90;;;;;;5011839;28;20169;-70
2022/01/25 05:41:42;;;;;;;14.47;7.47;;;3.90;99.90;;;;;;5011745;28;20168;-70
2022/01/25 05:44:24;;;;;;;12.57;5.87;;;3.90;99.90;;;;;;5011751;28;20420;-70
2022/01/25 05:47:05;;;;;;;10.67;5.60;;;3.90;99.90;;;;;;5011835;28;21011;-70
2022/01/25 05:49:35;;;;;;;11.47;5.70;;;3.90;99.90;;;;;;5011561;28;20933;-71
2022/01/25 05:52:00;;;;;;;10.50;7.60;;;3.90;99.90;;;;;;5011481;28;20836;-71
2022/01/25 05:54:26;;;;;;;10.93;5.10;;;3.90;99.90;;;;;;5011483;28;20486;-71
2022/01/25 05:56:51;;;;;;;17.37;6.57;;;3.90;99.90;;;;;;5011672;28;20450;-72
2022/01/25 05:59:17;;;;;;;13.10;7.97;;;3.90;99.90;;;;;;5011437;28;20168;-70
2022/01/25 06:01:45;;;;;;;10.27;5.10;;;3.90;99.90;;;;;;5011277;28;20701;-70
2022/01/25 06:04:10;;;;;;;8.37;5.00;;;3.80;99.90;;;;;;5011473;28;20223;-70
2022/01/25 06:06:36;;;;;;;10.60;5.40;;;3.80;99.90;;;;;;5011270;28;20790;-70
2022/01/25 06:09:01;;;;;;;12.27;7.30;;;3.80;99.90;;;;;;5012662;28;20599;-70
2022/01/25 06:11:27;;;;;;;14.87;5.80;;;3.80;99.90;;;;;;5015126;28;20238;-70
2022/01/25 06:13:52;;;;;;;15.03;6.53;;;3.80;99.90;;;;;;5015170;28;20165;-70
2022/01/25 06:16:18;;;;;;;8.17;5.27;;;3.70;99.90;;;;;;5015121;28;20462;-70
2022/01/25 06:18:44;;;;;;;8.37;4.30;;;3.80;99.90;;;;;;5015144;28;20171;-70
2022/01/25 06:21:09;;;;;;;9.10;6.20;;;3.80;99.90;;;;;;5015387;28;20198;-70
2022/01/25 06:23:35;;;;;;;13.87;8.90;;;3.80;99.90;;;;;;5015291;28;20408;-70
2022/01/25 06:26:00;;;;;;;15.17;8.07;;;3.80;99.90;;;;;;5015639;28;20554;-70
2022/01/25 06:28:26;;;;;;;15.97;6.40;;;3.80;99.90;;;;;;5015166;28;20176;-70
2022/01/25 06:30:51;;;;;;;18.97;6.43;;;3.80;99.90;;;;;;5015049;28;20208;-70
2022/01/25 06:33:17;;;;;;;9.20;5.43;;;3.80;99.90;;;;;;5015122;28;20207;-70
2022/01/25 06:35:45;;;;;;;8.57;5.30;;;3.80;99.90;;;;;;5014828;28;20556;-70
2022/01/25 06:38:11;;;;;;;10.47;5.23;;;3.80;99.90;;;;;;5014752;28;20514;-70
2022/01/25 06:40:36;;;;;;;13.33;4.93;;;3.80;99.90;;;;;;5014658;28;20469;-71
2022/01/25 06:43:01;;;;;;;13.03;6.70;;;3.80;99.90;;;;;;5015145;28;20172;-71
2022/01/25 06:45:27;;;;;;;14.93;6.53;;;3.80;99.90;;;;;;5014699;28;20188;-71
2022/01/25 06:47:53;;;;;;;10.20;7.37;;;3.80;99.90;;;;;;5014796;28;20172;-71
2022/01/25 06:50:22;;;;;;;11.97;7.23;;;3.80;99.90;;;;;;5014901;28;20261;-71
2022/01/25 06:52:47;;;;;;;9.03;5.20;;;3.70;99.90;;;;;;5014729;28;20183;-71
2022/01/25 06:55:15;;;;;;;15.77;5.93;;;3.70;99.90;;;;;;5014135;28;20451;-71
2022/01/25 06:57:41;;;;;;;13.47;6.00;;;3.80;99.90;;;;;;5014991;28;20333;-71
2022/01/25 07:00:19;;;;;;;14.13;6.13;;;3.80;99.90;;;;;;5014497;28;20434;-71
2022/01/25 07:02:45;;;;;;;13.47;5.00;;;3.90;99.90;;;;;;5014847;28;20418;-70
2022/01/25 07:05:11;;;;;;;11.17;5.40;;;3.90;99.90;;;;;;5014268;28;20407;-69
2022/01/25 07:07:38;;;;;;;7.07;4.03;;;3.80;99.90;;;;;;5014242;28;20215;-70
2022/01/25 07:10:04;;;;;;;13.33;5.30;;;3.90;99.90;;;;;;5014312;28;20849;-71
2022/01/25 07:12:30;;;;;;;11.20;5.23;;;3.90;99.90;;;;;;5014291;28;20412;-71
2022/01/25 07:14:55;;;;;;;10.43;5.90;;;3.90;99.90;;;;;;5014407;28;20395;-71
2022/01/25 07:17:21;;;;;;;5.97;4.20;;;3.90;99.90;;;;;;5014160;28;20702;-71
2022/01/25 07:19:46;;;;;;;11.63;6.37;;;4.00;99.90;;;;;;5013915;28;20199;-71
2022/01/25 07:22:11;;;;;;;13.47;7.00;;;4.00;99.90;;;;;;5013812;28;20270;-72
2022/01/25 07:24:37;;;;;;;12.17;5.17;;;3.90;99.90;;;;;;5014042;28;20628;-71
2022/01/25 07:27:03;;;;;;;10.33;5.43;;;3.90;99.90;;;;;;5014138;28;20295;-71
2022/01/25 07:29:28;;;;;;;10.83;7.47;;;3.90;99.90;;;;;;5014316;28;20266;-70
2022/01/25 07:31:55;;;;;;;9.43;6.37;;;4.00;99.90;;;;;;5014141;28;20173;-71
2022/01/25 07:34:21;;;;;;;13.43;6.43;;;4.00;99.90;;;;;;5014237;28;20180;-71
2022/01/25 07:36:46;;;;;;;11.87;5.30;;;4.00;99.90;;;;;;5013850;28;20485;-71
2022/01/25 07:39:12;;;;;;;11.53;6.10;;;4.10;99.90;;;;;;5013848;28;20916;-71
2022/01/25 07:41:38;;;;;;;10.87;6.53;;;4.00;99.90;;;;;;5014289;28;20231;-71
2022/01/25 07:44:05;;;;;;;8.10;6.07;;;4.00;99.90;;;;;;5013596;28;20403;-70
2022/01/25 07:46:31;;;;;;;13.17;6.50;;;4.10;99.90;;;;;;5013646;28;20426;-71
2022/01/25 07:48:57;;;;;;;13.50;6.43;;;4.00;99.90;;;;;;5013673;28;20415;-70
2022/01/25 07:51:25;;;;;;;14.83;7.47;;;4.00;99.90;;;;;;5013644;28;20420;-71
2022/01/25 07:53:51;;;;;;;14.00;7.03;;;4.00;99.90;;;;;;5013256;28;20411;-70
2022/01/25 07:56:17;;;;;;;20.00;6.23;;;4.00;99.90;;;;;;5013255;28;20976;-71
2022/01/25 07:58:42;;;;;;;12.90;7.27;;;3.90;99.90;;;;;;5013572;28;20426;-72
2022/01/25 08:01:08;;;;;;;14.80;6.40;;;4.00;99.90;;;;;;5013285;28;20165;-70
2022/01/25 08:03:33;;;;;;;12.13;6.47;;;4.10;99.90;;;;;;5013134;28;20490;-70
2022/01/25 08:05:59;;;;;;;18.43;8.73;;;4.10;99.90;;;;;;5012891;28;20271;-71
2022/01/25 08:08:25;;;;;;;14.00;6.53;;;4.10;99.90;;;;;;5013221;28;20187;-71
2022/01/25 08:10:50;;;;;;;12.13;6.67;;;4.20;99.90;;;;;;5013098;28;20562;-71
2022/01/25 08:13:15;;;;;;;12.70;6.73;;;4.30;99.90;;;;;;5013053;28;20172;-70
2022/01/25 08:15:41;;;;;;;11.20;7.50;;;4.20;99.90;;;;;;5012807;28;20313;-71
2022/01/25 08:18:07;;;;;;;13.73;7.53;;;4.10;99.90;;;;;;5013564;28;20777;-71
2022/01/25 08:20:33;;;;;;;7.93;5.57;;;4.20;99.90;;;;;;5013118;28;20172;-71
2022/01/25 08:22:59;;;;;;;21.27;9.00;;;4.30;99.90;;;;;;5013073;28;20751;-72
2022/01/25 08:25:24;;;;;;;11.97;6.90;;;4.40;99.90;;;;;;5013408;28;20580;-71
2022/01/25 08:27:50;;;;;;;17.27;8.70;;;4.20;99.90;;;;;;5012849;28;20223;-72
2022/01/25 08:30:16;;;;;;;15.53;8.07;;;4.40;99.90;;;;;;5012871;28;20303;-71
2022/01/25 08:32:42;;;;;;;19.07;8.10;;;4.60;99.90;;;;;;5012509;28;20581;-71
2022/01/25 08:35:08;;;;;;;15.27;8.90;;;4.50;99.90;;;;;;5012667;28;20251;-71
2022/01/25 08:37:34;;;;;;;9.57;6.97;;;4.50;99.90;;;;;;5012972;28;20491;-71
2022/01/25 08:39:59;;;;;;;15.47;9.13;;;4.40;99.90;;;;;;5012730;28;20407;-71
2022/01/25 08:42:25;;;;;;;19.90;6.20;;;4.50;99.90;;;;;;5012718;28;20172;-71
2022/01/25 08:44:50;;;;;;;12.97;7.27;;;4.50;99.90;;;;;;5012382;28;20259;-70
2022/01/25 08:47:16;;;;;;;10.50;7.63;;;4.70;99.90;;;;;;5012440;28;20237;-70
2022/01/25 08:49:42;;;;;;;26.07;8.87;;;4.70;99.90;;;;;;5012300;28;20668;-72
2022/01/25 08:52:07;;;;;;;14.40;7.10;;;4.60;99.90;;;;;;5012313;28;20179;-71
2022/01/25 08:54:34;;;;;;;22.50;9.67;;;4.60;99.90;;;;;;5012477;28;20403;-71
2022/01/25 08:57:00;;;;;;;10.80;4.60;;;4.60;99.90;;;;;;5012256;28;20245;-69
2022/01/25 08:59:26;;;;;;;17.87;8.40;;;4.70;99.90;;;;;;5012322;28;20426;-71
2022/01/25 09:01:51;;;;;;;20.40;8.77;;;4.40;99.90;;;;;;5012134;28;20411;-70
2022/01/25 09:04:17;;;;;;;11.73;7.80;;;4.40;99.90;;;;;;5012258;28;20653;-71
2022/01/25 09:06:43;;;;;;;14.07;6.13;;;4.30;99.90;;;;;;5012061;28;20204;-71
2022/01/25 09:09:10;;;;;;;18.57;9.03;;;4.40;99.90;;;;;;5012130;28;20886;-71
2022/01/25 09:11:37;;;;;;;17.53;8.40;;;4.50;99.90;;;;;;5012167;28;20176;-71
2022/01/25 09:14:04;;;;;;;17.50;7.90;;;4.70;99.90;;;;;;5012024;28;20775;-71
2022/01/25 09:16:29;;;;;;;13.70;8.57;;;4.50;99.90;;;;;;5011707;28;20959;-72
2022/01/25 09:18:55;;;;;;;15.80;7.07;;;4.40;99.90;;;;;;5011974;28;20601;-72
2022/01/25 09:21:21;;;;;;;12.20;5.83;;;4.30;99.90;;;;;;5012159;28;20608;-71
2022/01/25 09:23:46;;;;;;;15.60;9.60;;;4.40;99.90;;;;;;5011917;28;20666;-72
2022/01/25 09:26:12;;;;;;;12.53;7.00;;;4.40;99.90;;;;;;5011608;28;20543;-71
2022/01/25 09:28:38;;;;;;;13.67;7.60;;;4.40;99.90;;;;;;5011803;28;20271;-70
2022/01/25 09:31:03;;;;;;;14.43;6.90;;;4.60;99.90;;;;;;5012121;28;20211;-71
2022/01/25 09:33:29;;;;;;;16.77;8.57;;;4.60;99.90;;;;;;5011929;28;20419;-71
2022/01/25 09:35:55;;;;;;;15.53;7.37;;;4.50;99.90;;;;;;5011868;28;20246;-70
2022/01/25 09:38:22;;;;;;;19.00;7.07;;;4.50;99.90;;;;;;5012147;28;20190;-71
2022/01/25 09:40:49;;;;;;;6.40;5.80;;;4.50;99.90;;;;;;5011875;28;20408;-71
2022/01/25 09:43:15;;;;;;;14.03;5.53;;;4.60;99.90;;;;;;5010881;28;20411;-72
2022/01/25 09:45:41;;;;;;;17.33;8.80;;;4.30;99.90;;;;;;5011673;28;20427;-71
2022/01/25 09:48:08;;;;;;;15.27;9.33;;;4.30;99.90;;;;;;5011711;28;20834;-70
2022/01/25 09:50:36;;;;;;;14.23;6.20;;;4.30;99.90;;;;;;5011568;28;21125;-72
2022/01/25 09:53:02;;;;;;;7.63;4.30;;;4.30;99.90;;;;;;5011781;28;20887;-72
2022/01/25 09:55:32;;;;;;;9.87;7.70;;;4.30;99.90;;;;;;5011257;28;20530;-69
2022/01/25 09:57:57;;;;;;;11.20;5.60;;;4.20;99.90;;;;;;5011371;28;20447;-71
2022/01/25 10:00:29;;;;;;;10.90;4.50;;;4.10;99.90;;;;;;5011374;28;20827;-71
2022/01/25 10:03:08;;;;;;;9.53;5.50;;;4.20;99.90;;;;;;5011436;28;20536;-71
2022/01/25 10:05:37;;;;;;;10.73;5.10;;;4.10;99.90;;;;;;5011744;28;20435;-71
2022/01/25 10:08:06;;;;;;;9.87;6.60;;;4.30;99.90;;;;;;5011810;28;20415;-71
2022/01/25 10:10:35;;;;;;;13.63;6.10;;;4.30;99.90;;;;;;5011235;28;20502;-72
2022/01/25 10:13:21;;;;;;;13.50;6.93;;;4.50;99.90;;;;;;5009857;28;20418;-71
2022/01/25 10:15:49;;;;;;;10.07;6.83;;;4.40;99.90;;;;;;5011396;28;20438;-71
2022/01/25 10:18:15;;;;;;;7.37;4.50;;;4.40;99.90;;;;;;5011488;28;20408;-71
2022/01/25 10:20:44;;;;;;;10.37;6.63;;;4.30;99.90;;;;;;5011150;28;20416;-71
2022/01/25 10:23:20;;;;;;;11.53;4.87;;;4.30;99.90;;;;;;5011115;28;20407;-71
2022/01/25 10:25:47;;;;;;;9.37;5.40;;;4.60;99.90;;;;;;5011191;28;20513;-72
2022/01/25 10:28:21;;;;;;;8.37;4.03;;;4.70;99.90;;;;;;5011326;28;20415;-72
2022/01/25 10:30:50;;;;;;;9.93;7.27;;;4.60;99.90;;;;;;5004329;28;20467;-72
2022/01/25 10:33:28;;;;;;;12.23;6.50;;;4.60;99.90;;;;;;4992340;28;20799;-72
2022/01/25 10:35:57;;;;;;;5.77;3.37;;;4.80;99.90;;;;;;4992466;28;20435;-72
2022/01/25 10:38:29;;;;;;;9.40;3.90;;;4.60;99.90;;;;;;4992772;28;20462;-71
2022/01/25 10:41:20;;;;;;;13.60;6.57;;;4.50;99.90;;;;;;4999821;28;20605;-70
2022/01/25 10:43:47;;;;;;;5.43;3.23;;;4.30;99.90;;;;;;5009482;28;20431;-69
2022/01/25 10:46:27;;;;;;;11.53;4.07;;;4.40;99.90;;;;;;5012984;28;20431;-69
2022/01/25 10:49:04;;;;;;;15.57;6.27;;;4.40;99.90;;;;;;5014208;28;20411;-71
2022/01/25 10:51:38;;;;;;;8.90;6.33;;;4.50;99.90;;;;;;5012203;28;20423;-70
2022/01/25 10:54:22;;;;;;;12.70;3.90;;;4.50;99.90;;;;;;5011375;28;20426;-71
2022/01/25 10:56:59;;;;;;;15.17;5.00;;;4.70;99.90;;;;;;5017480;28;20477;-70
2022/01/25 10:59:32;;;;;;;9.53;4.40;;;4.90;99.90;;;;;;5021642;28;20411;-70
2022/01/25 11:02:04;;;;;;;9.97;4.50;;;4.70;99.90;;;;;;5012987;28;20425;-70
2022/01/25 11:04:34;;;;;;;14.00;4.20;;;4.50;99.90;;;;;;5023576;28;20452;-71
2022/01/25 11:07:08;;;;;;;11.67;5.40;;;4.60;99.90;;;;;;5006031;28;20424;-70
2022/01/25 11:09:39;;;;;;;18.10;4.50;;;4.80;99.90;;;;;;5012243;28;20859;-71
2022/01/25 11:12:09;;;;;;;11.60;4.80;;;5.00;99.90;;;;;;5013458;28;20921;-70
2022/01/25 11:14:53;;;;;;;8.50;6.00;;;5.10;99.90;;;;;;5007093;28;20411;-69
2022/01/25 11:17:20;;;;;;;7.57;5.00;;;4.90;99.90;;;;;;5007661;28;20412;-70
2022/01/25 11:19:45;;;;;;;9.17;4.87;;;4.90;99.90;;;;;;5005238;28;20423;-71
2022/01/25 11:22:17;;;;;;;11.40;5.50;;;5.00;99.90;;;;;;5003506;28;20448;-70
2022/01/25 11:24:44;;;;;;;11.03;4.17;;;5.00;99.90;;;;;;5004892;28;20556;-70
2022/01/25 11:27:10;;;;;;;9.20;6.50;;;5.00;99.90;;;;;;5002708;28;20435;-70
2022/01/25 11:29:39;;;;;;;9.27;5.20;;;5.00;99.90;;;;;;5003968;28;20455;-70
2022/01/25 11:32:09;;;;;;;13.50;6.93;;;5.10;99.90;;;;;;5011770;28;20415;-70
2022/01/25 11:34:37;;;;;;;7.80;4.53;;;5.00;99.90;;;;;;5010823;28;20415;-72
2022/01/25 11:37:05;;;;;;;9.50;6.20;;;5.10;99.90;;;;;;5013061;28;20953;-70
2022/01/25 11:39:31;;;;;;;5.10;4.23;;;5.10;99.90;;;;;;5005446;28;20841;-70
2022/01/25 11:42:10;;;;;;;7.30;4.60;;;5.00;99.90;;;;;;5002231;28;20442;-70
2022/01/25 11:44:45;;;;;;;7.60;6.00;;;4.90;99.90;;;;;;5006126;28;20502;-70
2022/01/25 11:47:16;;;;;;;5.87;3.70;;;4.90;99.90;;;;;;5013002;28;20526;-69
2022/01/25 11:49:56;;;;;;;11.20;4.40;;;5.00;99.90;;;;;;5013126;28;20446;-71
2022/01/25 11:52:24;;;;;;;8.20;3.70;;;5.00;99.90;;;;;;5012606;28;20446;-70
2022/01/25 11:54:52;;;;;;;10.03;5.60;;;5.10;99.90;;;;;;5012662;28;20412;-70
2022/01/25 11:57:24;;;;;;;8.07;4.17;;;5.00;99.90;;;;;;5013317;28;20929;-70
2022/01/25 11:59:56;;;;;;;4.83;4.00;;;5.00;99.90;;;;;;5013185;28;20407;-70
2022/01/25 12:02:45;;;;;;;4.57;3.43;;;5.00;99.90;;;;;;5012619;28;20407;-70
2022/01/25 12:05:14;;;;;;;6.60;3.50;;;4.80;99.90;;;;;;5012784;28;20411;-69
2022/01/25 12:07:42;;;;;;;7.33;4.83;;;4.80;99.90;;;;;;5010991;28;20490;-71
2022/01/25 12:10:31;;;;;;;8.17;4.53;;;4.90;99.90;;;;;;4993066;28;20487;-70
2022/01/25 12:13:29;;;;;;;8.43;4.70;;;4.90;99.90;;;;;;4992923;28;20880;-70
2022/01/25 12:16:29;;;;;;;11.63;4.47;;;4.80;99.90;;;;;;4962305;28;20431;-68
2022/01/25 12:19:00;;;;;;;4.10;3.70;;;4.90;99.90;;;;;;4992802;28;20412;-69
2022/01/25 12:21:48;;;;;;;6.57;3.20;;;4.90;99.90;;;;;;4992822;28;20416;-70
2022/01/25 12:24:37;;;;;;;8.83;4.70;;;5.00;99.90;;;;;;4992946;28;21130;-70
2022/01/25 12:27:07;;;;;;;6.97;3.93;;;4.90;99.90;;;;;;4993124;28;20467;-70
2022/01/25 12:29:34;;;;;;;8.97;4.53;;;4.90;99.90;;;;;;4996872;28;20773;-70
2022/01/25 12:32:21;;;;;;;6.10;3.83;;;4.90;99.90;;;;;;4995663;28;20482;-71
2022/01/25 12:35:07;;;;;;;4.30;3.53;;;4.90;99.90;;;;;;4993403;28;20400;-71
2022/01/25 12:37:45;;;;;;;7.70;4.27;;;5.00;99.90;;;;;;5002958;28;20407;-72
2022/01/25 12:40:26;;;;;;;9.13;5.10;;;5.00;99.90;;;;;;5006332;28;20433;-72
2022/01/25 12:43:03;;;;;;;7.97;3.50;;;5.00;99.90;;;;;;5011657;28;20431;-70
2022/01/25 12:45:43;;;;;;;4.90;3.03;;;5.00;99.90;;;;;;5011605;28;20429;-70
2022/01/25 12:48:14;;;;;;;9.30;5.07;;;5.00;99.90;;;;;;5012127;28;20461;-71
2022/01/25 12:50:43;;;;;;;6.13;3.07;;;5.10;99.90;;;;;;5011953;28;21035;-70
2022/01/25 12:53:13;;;;;;;9.03;6.23;;;5.10;99.90;;;;;;5011217;28;20430;-69
2022/01/25 12:55:42;;;;;;;6.00;4.73;;;5.10;99.90;;;;;;5011367;28;20474;-71
2022/01/25 12:58:08;;;;;;;11.23;6.10;;;5.10;99.90;;;;;;5010406;28;20433;-70
2022/01/25 13:00:39;;;;;;;6.60;4.37;;;5.10;99.90;;;;;;5007524;28;20494;-70
2022/01/25 13:03:11;;;;;;;7.43;5.03;;;5.00;99.90;;;;;;4999550;28;20411;-70
2022/01/25 13:05:47;;;;;;;12.53;4.90;;;4.90;99.90;;;;;;5012251;28;20454;-70
2022/01/25 13:08:34;;;;;;;7.17;3.90;;;4.90;99.90;;;;;;5012241;28;20980;-70
2022/01/25 13:11:19;;;;;;;15.23;9.67;;;5.00;99.90;;;;;;4994308;28;20471;-70
2022/01/25 13:14:00;;;;;;;8.10;5.77;;;5.00;99.90;;;;;;5011948;28;20414;-69
2022/01/25 13:16:45;;;;;;;10.00;5.70;;;5.00;99.90;;;;;;5011619;28;20427;-70
2022/01/25 13:19:11;;;;;;;13.57;6.57;;;5.10;99.90;;;;;;5011846;28;20395;-70
2022/01/25 13:21:51;;;;;;;11.70;6.30;;;5.30;99.90;;;;;;5012154;28;20407;-69
2022/01/25 13:24:19;;;;;;;9.30;8.27;;;5.10;99.90;;;;;;4992131;28;20950;-69
2022/01/25 13:27:02;;;;;;;14.80;5.70;;;5.10;99.90;;;;;;4992228;28;20424;-70
2022/01/25 13:32:27;;;;;;;11.63;5.87;;;5.30;99.90;;;;;;5004394;28;20762;-70
2022/01/25 13:35:21;;;;;;;18.30;7.47;;;5.30;99.90;;;;;;5001127;28;20434;-70
2022/01/25 13:38:06;;;;;;;14.60;6.10;;;5.10;99.90;;;;;;5011813;28;20481;-70
2022/01/25 13:40:49;;;;;;;15.37;6.93;;;5.00;99.90;;;;;;5004783;28;20919;-71
2022/01/25 13:46:42;;;;;;;10.63;4.20;;;5.10;99.90;;;;;;5002465;28;20526;-70
2022/01/25 13:49:18;;;;;;;14.97;6.53;;;5.10;99.90;;;;;;5005422;28;20510;-72
2022/01/25 13:51:57;;;;;;;4.77;4.43;;;5.00;99.90;;;;;;4999789;28;20407;-70
2022/01/25 13:54:25;;;;;;;14.87;6.47;;;5.10;99.90;;;;;;4999426;28;21038;-71
2022/01/25 13:56:51;;;;;;;10.80;4.30;;;5.10;99.90;;;;;;4991962;28;20467;-70
2022/01/25 13:59:17;;;;;;;9.70;4.77;;;5.20;99.90;;;;;;4992350;28;20405;-70
2022/01/25 14:01:43;;;;;;;9.73;5.90;;;5.10;99.90;;;;;;4997880;28;20207;-71
2022/01/25 14:04:18;;;;;;;8.10;5.10;;;5.00;99.90;;;;;;4998237;28;20443;-71
2022/01/25 14:06:50;;;;;;;10.80;5.10;;;5.10;99.90;;;;;;5001213;28;20514;-71
2022/01/25 14:09:39;;;;;;;7.13;4.47;;;5.10;99.90;;;;;;5011061;28;20411;-71
2022/01/25 14:26:18;;;;;;;12.80;5.57;;;4.90;99.90;;;;;;5005175;28;20444;-71
2022/01/25 14:28:52;;;;;;;9.53;4.60;;;4.90;99.90;;;;;;5002795;28;20450;-71
2022/01/25 14:31:24;;;;;;;9.60;3.90;;;4.80;99.90;;;;;;5013819;28;20972;-71
2022/01/25 14:34:05;;;;;;;7.57;4.37;;;4.80;99.90;;;;;;4999130;28;20965;-71
2022/01/25 14:36:31;;;;;;;16.90;5.70;;;4.80;99.90;;;;;;5019265;28;20937;-71
2022/01/25 14:39:17;;;;;;;10.37;5.43;;;4.80;99.90;;;;;;5013197;28;20466;-71
2022/01/25 14:41:43;;;;;;;7.13;4.13;;;5.00;99.90;;;;;;5009228;28;20945;-71